North Island Naval Air Station-Halsey Field
KNZY : now visible

Aeroporto :











RITROVATECI SU...

 
LOGIN :

Iscrizione | Disclaimer

   EN    FR    IT 

 









Sommario :    VFR   VFR Marginale   IFR   IFR Intensivo   IFR Molto Intensivo
Visibilità : 
Base nubi : 
>= 8 km
>= 3000ft
5 / 8 km
1000 / 3000 ft
1500m / 5 km
500 / 1000 ft
800 / 1500m
200 / 500 ft
< 800m
< 200 ft
Simboli :   Temporali  Nebbia  Neve Forte  Precipitazioni Forti  Vento > 20 kt






- Altitudine del aeroporto : 26 ft


KNZY - North Island Naval Air Station-Halsey Field

ULTIMO METAR :
  • 272052Z 30012KT 10SM SCT250 17/11 A3017 RMK AO2 SLP215 T01720106 58018 $

METARs OBSOLETI :
  • 271952Z 31009KT 10SM SCT250 17/10 A3019 RMK AO2 SLP222 T01720100 $
  • 271852Z 33006KT 10SM FEW250 16/09 A3022 RMK AO2 SLP232 T01610094 $
  • 271752Z 35006KT 10SM CLR 16/09 A3022 RMK AO2 SLP232 T01560094 10156 20100 53011 $

TAF AMD TAF KNZY
Valido dal 27 a 15 ore il 28 a 15 ore UTC


2715/2815 VRB06KT 9999 FEW020 QNH3014INS
FM272000 32010KT 9999 FEW250 QNH3010INS
FM280200 VRB06KT 9999 SKC QNH3009INS T18/2722Z T09/2813Z AMD 1603 FS30103



MetMap, La meteo Aeronautica in un colpo d'occhio ! - Copyright ORBIFLY Dicembre 2007 - Disclaimer

ORBIFLY MET'MAP TEAM :

Programmazione e sviluppo : Alexandra Zaïnal
Concezione : Baudouin d'Aumeries
Aiuto per la programmazione : Marc-Olivier Méhu
Supporto tecnico e logistico : Manuel Goepfert
Aiuto per la traduzione : Arnaldo La Scala

Contatto : metmap@orbifly.com




FONTI E CREDITI :

   NOAA       Earth
Advisory